sensor_id;sensor_type;location;lat;lon;timestamp;P1;durP1;ratioP1;P2;durP2;ratioP2
45274;SDS011;31019;43.780;25.948;2023-03-07T00:00:19;90.22;;;70.68;;
45274;SDS011;31019;43.780;25.948;2023-03-07T00:02:48;80.57;;;65.18;;
45274;SDS011;31019;43.780;25.948;2023-03-07T00:05:16;77.43;;;67.05;;
45274;SDS011;31019;43.780;25.948;2023-03-07T00:07:42;82.15;;;68.45;;
45274;SDS011;31019;43.780;25.948;2023-03-07T00:10:10;81.15;;;72.53;;
45274;SDS011;31019;43.780;25.948;2023-03-07T00:12:37;80.15;;;65.20;;
45274;SDS011;31019;43.780;25.948;2023-03-07T00:15:05;59.60;;;46.95;;
45274;SDS011;31019;43.780;25.948;2023-03-07T00:17:34;58.60;;;40.60;;
45274;SDS011;31019;43.780;25.948;2023-03-07T00:20:01;58.30;;;41.15;;
45274;SDS011;31019;43.780;25.948;2023-03-07T00:22:30;54.65;;;42.85;;
45274;SDS011;31019;43.780;25.948;2023-03-07T00:24:57;49.38;;;40.05;;
45274;SDS011;31019;43.780;25.948;2023-03-07T00:27:24;50.67;;;43.00;;
45274;SDS011;31019;43.780;25.948;2023-03-07T00:29:51;52.97;;;44.28;;
45274;SDS011;31019;43.780;25.948;2023-03-07T00:32:19;60.83;;;49.28;;
45274;SDS011;31019;43.780;25.948;2023-03-07T00:34:45;62.60;;;49.65;;
45274;SDS011;31019;43.780;25.948;2023-03-07T00:37:12;58.65;;;43.78;;
45274;SDS011;31019;43.780;25.948;2023-03-07T00:39:39;57.58;;;43.13;;
45274;SDS011;31019;43.780;25.948;2023-03-07T00:42:06;59.78;;;44.00;;
45274;SDS011;31019;43.780;25.948;2023-03-07T00:44:33;59.22;;;44.55;;
45274;SDS011;31019;43.780;25.948;2023-03-07T00:47:00;62.40;;;46.58;;
45274;SDS011;31019;43.780;25.948;2023-03-07T00:49:29;61.85;;;45.75;;
45274;SDS011;31019;43.780;25.948;2023-03-07T00:51:55;58.53;;;44.30;;
45274;SDS011;31019;43.780;25.948;2023-03-07T00:54:22;57.72;;;42.70;;
45274;SDS011;31019;43.780;25.948;2023-03-07T00:56:49;64.80;;;46.28;;
45274;SDS011;31019;43.780;25.948;2023-03-07T00:59:15;67.03;;;45.35;;
45274;SDS011;31019;43.780;25.948;2023-03-07T01:01:42;68.93;;;44.45;;
45274;SDS011;31019;43.780;25.948;2023-03-07T01:04:09;89.80;;;50.95;;
45274;SDS011;31019;43.780;25.948;2023-03-07T01:06:37;62.90;;;43.35;;
45274;SDS011;31019;43.780;25.948;2023-03-07T01:09:05;85.13;;;52.10;;
45274;SDS011;31019;43.780;25.948;2023-03-07T01:11:33;199.57;;;89.22;;
45274;SDS011;31019;43.780;25.948;2023-03-07T01:14:02;148.35;;;71.95;;
45274;SDS011;31019;43.780;25.948;2023-03-07T01:16:31;102.45;;;58.60;;
45274;SDS011;31019;43.780;25.948;2023-03-07T01:19:00;107.28;;;59.28;;
45274;SDS011;31019;43.780;25.948;2023-03-07T01:21:28;78.85;;;50.70;;
45274;SDS011;31019;43.780;25.948;2023-03-07T01:23:58;78.30;;;49.65;;
45274;SDS011;31019;43.780;25.948;2023-03-07T01:26:25;69.05;;;46.15;;
45274;SDS011;31019;43.780;25.948;2023-03-07T01:28:54;59.47;;;42.30;;
45274;SDS011;31019;43.780;25.948;2023-03-07T01:31:23;50.38;;;41.67;;
45274;SDS011;31019;43.780;25.948;2023-03-07T01:33:51;94.15;;;54.75;;
45274;SDS011;31019;43.780;25.948;2023-03-07T01:36:19;127.53;;;70.78;;
45274;SDS011;31019;43.780;25.948;2023-03-07T01:38:52;146.13;;;84.97;;
45274;SDS011;31019;43.780;25.948;2023-03-07T01:41:21;107.00;;;68.13;;
45274;SDS011;31019;43.780;25.948;2023-03-07T01:43:48;82.00;;;63.50;;
45274;SDS011;31019;43.780;25.948;2023-03-07T01:46:26;66.18;;;55.08;;
45274;SDS011;31019;43.780;25.948;2023-03-07T01:49:03;65.75;;;55.45;;
45274;SDS011;31019;43.780;25.948;2023-03-07T01:51:33;63.42;;;50.00;;
45274;SDS011;31019;43.780;25.948;2023-03-07T01:54:03;68.03;;;53.20;;
45274;SDS011;31019;43.780;25.948;2023-03-07T01:56:34;66.18;;;53.55;;
45274;SDS011;31019;43.780;25.948;2023-03-07T01:59:03;67.35;;;49.78;;
45274;SDS011;31019;43.780;25.948;2023-03-07T02:01:30;64.80;;;49.13;;
45274;SDS011;31019;43.780;25.948;2023-03-07T02:03:58;62.88;;;53.40;;
45274;SDS011;31019;43.780;25.948;2023-03-07T02:06:30;60.85;;;53.80;;
45274;SDS011;31019;43.780;25.948;2023-03-07T02:08:59;76.40;;;60.88;;
45274;SDS011;31019;43.780;25.948;2023-03-07T02:11:27;63.00;;;47.03;;
45274;SDS011;31019;43.780;25.948;2023-03-07T02:13:57;67.05;;;51.28;;
45274;SDS011;31019;43.780;25.948;2023-03-07T02:16:23;65.60;;;53.33;;
45274;SDS011;31019;43.780;25.948;2023-03-07T02:18:51;81.50;;;64.47;;
45274;SDS011;31019;43.780;25.948;2023-03-07T02:21:20;73.38;;;59.38;;
45274;SDS011;31019;43.780;25.948;2023-03-07T02:23:56;66.82;;;55.53;;
45274;SDS011;31019;43.780;25.948;2023-03-07T02:29:02;81.88;;;67.80;;
45274;SDS011;31019;43.780;25.948;2023-03-07T02:31:29;71.88;;;59.92;;
45274;SDS011;31019;43.780;25.948;2023-03-07T02:33:56;68.93;;;58.42;;
45274;SDS011;31019;43.780;25.948;2023-03-07T02:36:23;65.43;;;57.72;;
45274;SDS011;31019;43.780;25.948;2023-03-07T02:38:54;73.28;;;63.70;;
45274;SDS011;31019;43.780;25.948;2023-03-07T02:41:23;64.60;;;58.08;;
45274;SDS011;31019;43.780;25.948;2023-03-07T02:43:55;85.82;;;66.78;;
45274;SDS011;31019;43.780;25.948;2023-03-07T02:46:22;68.78;;;52.03;;
45274;SDS011;31019;43.780;25.948;2023-03-07T02:48:48;58.72;;;52.60;;
45274;SDS011;31019;43.780;25.948;2023-03-07T02:51:15;57.65;;;51.38;;
45274;SDS011;31019;43.780;25.948;2023-03-07T02:53:42;63.40;;;56.55;;
45274;SDS011;31019;43.780;25.948;2023-03-07T02:56:09;67.20;;;60.65;;
45274;SDS011;31019;43.780;25.948;2023-03-07T02:58:36;74.93;;;67.65;;
45274;SDS011;31019;43.780;25.948;2023-03-07T03:01:05;63.25;;;57.05;;
45274;SDS011;31019;43.780;25.948;2023-03-07T03:03:32;69.10;;;62.17;;
45274;SDS011;31019;43.780;25.948;2023-03-07T03:05:58;73.75;;;66.72;;
45274;SDS011;31019;43.780;25.948;2023-03-07T03:08:25;62.30;;;55.35;;
45274;SDS011;31019;43.780;25.948;2023-03-07T03:10:52;80.90;;;68.15;;
45274;SDS011;31019;43.780;25.948;2023-03-07T03:13:19;79.63;;;67.05;;
45274;SDS011;31019;43.780;25.948;2023-03-07T03:15:46;71.72;;;61.67;;
45274;SDS011;31019;43.780;25.948;2023-03-07T03:18:14;55.17;;;48.90;;
45274;SDS011;31019;43.780;25.948;2023-03-07T03:20:42;61.40;;;54.88;;
45274;SDS011;31019;43.780;25.948;2023-03-07T03:23:08;61.47;;;51.33;;
45274;SDS011;31019;43.780;25.948;2023-03-07T03:25:35;65.90;;;54.90;;
45274;SDS011;31019;43.780;25.948;2023-03-07T03:28:02;64.13;;;54.65;;
45274;SDS011;31019;43.780;25.948;2023-03-07T03:30:29;75.47;;;64.82;;
45274;SDS011;31019;43.780;25.948;2023-03-07T03:32:56;72.15;;;64.53;;
45274;SDS011;31019;43.780;25.948;2023-03-07T03:35:24;70.38;;;59.70;;
45274;SDS011;31019;43.780;25.948;2023-03-07T03:37:51;75.20;;;56.20;;
45274;SDS011;31019;43.780;25.948;2023-03-07T03:40:18;69.32;;;54.85;;
45274;SDS011;31019;43.780;25.948;2023-03-07T03:42:45;67.50;;;56.60;;
45274;SDS011;31019;43.780;25.948;2023-03-07T03:45:12;69.47;;;54.20;;
45274;SDS011;31019;43.780;25.948;2023-03-07T03:47:39;67.00;;;50.58;;
45274;SDS011;31019;43.780;25.948;2023-03-07T03:50:07;68.18;;;48.35;;
45274;SDS011;31019;43.780;25.948;2023-03-07T03:52:35;69.57;;;52.80;;
45274;SDS011;31019;43.780;25.948;2023-03-07T03:55:02;72.63;;;56.15;;
45274;SDS011;31019;43.780;25.948;2023-03-07T03:57:29;70.15;;;60.35;;
45274;SDS011;31019;43.780;25.948;2023-03-07T03:59:56;74.93;;;59.75;;
45274;SDS011;31019;43.780;25.948;2023-03-07T04:02:23;75.50;;;61.80;;
45274;SDS011;31019;43.780;25.948;2023-03-07T04:04:50;75.38;;;67.15;;
45274;SDS011;31019;43.780;25.948;2023-03-07T04:07:17;70.45;;;59.13;;
45274;SDS011;31019;43.780;25.948;2023-03-07T04:09:45;75.68;;;63.42;;
45274;SDS011;31019;43.780;25.948;2023-03-07T04:12:12;70.72;;;60.10;;
45274;SDS011;31019;43.780;25.948;2023-03-07T04:14:38;68.45;;;57.08;;
45274;SDS011;31019;43.780;25.948;2023-03-07T04:17:05;69.90;;;62.33;;
45274;SDS011;31019;43.780;25.948;2023-03-07T04:19:32;64.55;;;53.75;;
45274;SDS011;31019;43.780;25.948;2023-03-07T04:21:59;69.25;;;61.10;;
45274;SDS011;31019;43.780;25.948;2023-03-07T04:24:25;67.22;;;54.30;;
45274;SDS011;31019;43.780;25.948;2023-03-07T04:26:54;74.07;;;64.57;;
45274;SDS011;31019;43.780;25.948;2023-03-07T04:29:20;78.75;;;64.13;;
45274;SDS011;31019;43.780;25.948;2023-03-07T04:31:47;68.43;;;58.95;;
45274;SDS011;31019;43.780;25.948;2023-03-07T04:34:14;65.07;;;55.28;;
45274;SDS011;31019;43.780;25.948;2023-03-07T04:36:40;62.03;;;51.47;;
45274;SDS011;31019;43.780;25.948;2023-03-07T04:39:07;57.30;;;51.35;;
45274;SDS011;31019;43.780;25.948;2023-03-07T04:41:34;57.88;;;51.78;;
45274;SDS011;31019;43.780;25.948;2023-03-07T04:44:02;60.33;;;51.72;;
45274;SDS011;31019;43.780;25.948;2023-03-07T04:46:29;58.53;;;47.53;;
45274;SDS011;31019;43.780;25.948;2023-03-07T04:48:56;52.10;;;42.28;;
45274;SDS011;31019;43.780;25.948;2023-03-07T04:51:23;61.63;;;42.65;;
45274;SDS011;31019;43.780;25.948;2023-03-07T04:53:49;80.28;;;57.97;;
45274;SDS011;31019;43.780;25.948;2023-03-07T04:56:16;89.60;;;58.70;;
45274;SDS011;31019;43.780;25.948;2023-03-07T04:58:43;91.47;;;56.47;;
45274;SDS011;31019;43.780;25.948;2023-03-07T05:01:11;133.40;;;78.28;;
45274;SDS011;31019;43.780;25.948;2023-03-07T05:03:38;146.50;;;85.57;;
45274;SDS011;31019;43.780;25.948;2023-03-07T05:06:06;158.15;;;93.93;;
45274;SDS011;31019;43.780;25.948;2023-03-07T05:08:34;156.65;;;96.72;;
45274;SDS011;31019;43.780;25.948;2023-03-07T05:11:00;128.82;;;79.97;;
45274;SDS011;31019;43.780;25.948;2023-03-07T05:13:27;118.10;;;72.68;;
45274;SDS011;31019;43.780;25.948;2023-03-07T05:15:54;130.45;;;77.90;;
45274;SDS011;31019;43.780;25.948;2023-03-07T05:18:24;141.05;;;73.68;;
45274;SDS011;31019;43.780;25.948;2023-03-07T05:20:51;116.93;;;68.55;;
45274;SDS011;31019;43.780;25.948;2023-03-07T05:23:18;119.30;;;70.10;;
45274;SDS011;31019;43.780;25.948;2023-03-07T05:25:45;101.72;;;60.55;;
45274;SDS011;31019;43.780;25.948;2023-03-07T05:28:12;90.38;;;60.40;;
45274;SDS011;31019;43.780;25.948;2023-03-07T05:30:38;83.25;;;56.67;;
45274;SDS011;31019;43.780;25.948;2023-03-07T05:33:05;57.40;;;45.05;;
45274;SDS011;31019;43.780;25.948;2023-03-07T05:35:33;61.42;;;45.53;;
45274;SDS011;31019;43.780;25.948;2023-03-07T05:38:00;50.50;;;45.08;;
45274;SDS011;31019;43.780;25.948;2023-03-07T05:40:27;55.75;;;47.58;;
45274;SDS011;31019;43.780;25.948;2023-03-07T05:42:53;51.75;;;45.55;;
45274;SDS011;31019;43.780;25.948;2023-03-07T05:45:20;50.00;;;44.67;;
45274;SDS011;31019;43.780;25.948;2023-03-07T05:47:47;53.40;;;42.88;;
45274;SDS011;31019;43.780;25.948;2023-03-07T05:50:14;52.83;;;41.38;;
45274;SDS011;31019;43.780;25.948;2023-03-07T05:52:44;51.33;;;43.30;;
45274;SDS011;31019;43.780;25.948;2023-03-07T05:55:11;54.55;;;46.08;;
45274;SDS011;31019;43.780;25.948;2023-03-07T05:57:37;59.13;;;47.08;;
45274;SDS011;31019;43.780;25.948;2023-03-07T06:00:04;54.63;;;45.78;;
45274;SDS011;31019;43.780;25.948;2023-03-07T06:02:32;62.35;;;47.13;;
45274;SDS011;31019;43.780;25.948;2023-03-07T06:04:59;57.03;;;45.78;;
45274;SDS011;31019;43.780;25.948;2023-03-07T06:07:26;61.33;;;46.17;;
45274;SDS011;31019;43.780;25.948;2023-03-07T06:09:54;61.58;;;46.13;;
45274;SDS011;31019;43.780;25.948;2023-03-07T06:12:20;57.58;;;45.17;;
45274;SDS011;31019;43.780;25.948;2023-03-07T06:14:47;56.70;;;45.13;;
45274;SDS011;31019;43.780;25.948;2023-03-07T06:17:14;52.00;;;45.17;;
45274;SDS011;31019;43.780;25.948;2023-03-07T06:19:40;50.47;;;44.30;;
45274;SDS011;31019;43.780;25.948;2023-03-07T06:22:07;62.95;;;51.47;;
45274;SDS011;31019;43.780;25.948;2023-03-07T06:24:34;65.57;;;49.35;;
45274;SDS011;31019;43.780;25.948;2023-03-07T06:27:02;74.35;;;50.22;;
45274;SDS011;31019;43.780;25.948;2023-03-07T06:29:29;63.65;;;49.88;;
45274;SDS011;31019;43.780;25.948;2023-03-07T06:31:55;382.98;;;152.93;;
45274;SDS011;31019;43.780;25.948;2023-03-07T06:34:22;832.53;;;364.95;;
45274;SDS011;31019;43.780;25.948;2023-03-07T06:36:49;205.35;;;88.80;;
45274;SDS011;31019;43.780;25.948;2023-03-07T06:39:15;147.85;;;82.00;;
45274;SDS011;31019;43.780;25.948;2023-03-07T06:41:45;403.17;;;202.32;;
45274;SDS011;31019;43.780;25.948;2023-03-07T06:44:13;81.38;;;51.67;;
45274;SDS011;31019;43.780;25.948;2023-03-07T06:46:40;70.55;;;51.28;;
45274;SDS011;31019;43.780;25.948;2023-03-07T06:49:07;82.78;;;57.50;;
45274;SDS011;31019;43.780;25.948;2023-03-07T06:51:34;61.63;;;46.22;;
45274;SDS011;31019;43.780;25.948;2023-03-07T06:54:01;56.03;;;45.88;;
45274;SDS011;31019;43.780;25.948;2023-03-07T06:56:27;54.22;;;41.13;;
45274;SDS011;31019;43.780;25.948;2023-03-07T06:58:55;47.60;;;39.70;;
45274;SDS011;31019;43.780;25.948;2023-03-07T07:01:23;53.88;;;44.88;;
45274;SDS011;31019;43.780;25.948;2023-03-07T07:03:50;44.00;;;39.80;;
45274;SDS011;31019;43.780;25.948;2023-03-07T07:06:17;45.50;;;39.47;;
45274;SDS011;31019;43.780;25.948;2023-03-07T07:08:43;35.67;;;32.40;;
45274;SDS011;31019;43.780;25.948;2023-03-07T07:11:10;39.13;;;35.75;;
45274;SDS011;31019;43.780;25.948;2023-03-07T07:13:37;39.13;;;35.28;;
45274;SDS011;31019;43.780;25.948;2023-03-07T07:16:04;38.88;;;35.53;;
45274;SDS011;31019;43.780;25.948;2023-03-07T07:18:33;36.60;;;33.05;;
45274;SDS011;31019;43.780;25.948;2023-03-07T07:21:00;41.30;;;37.47;;
45274;SDS011;31019;43.780;25.948;2023-03-07T07:23:26;34.58;;;31.17;;
45274;SDS011;31019;43.780;25.948;2023-03-07T07:25:53;36.20;;;32.70;;
45274;SDS011;31019;43.780;25.948;2023-03-07T07:28:20;36.15;;;32.78;;
45274;SDS011;31019;43.780;25.948;2023-03-07T07:30:47;39.75;;;35.88;;
45274;SDS011;31019;43.780;25.948;2023-03-07T07:33:14;35.75;;;32.30;;
45274;SDS011;31019;43.780;25.948;2023-03-07T07:35:42;40.58;;;36.25;;
45274;SDS011;31019;43.780;25.948;2023-03-07T07:38:10;38.30;;;34.20;;
45274;SDS011;31019;43.780;25.948;2023-03-07T07:40:37;38.90;;;34.63;;
45274;SDS011;31019;43.780;25.948;2023-03-07T07:43:04;33.63;;;30.05;;
45274;SDS011;31019;43.780;25.948;2023-03-07T07:45:31;34.08;;;30.33;;
45274;SDS011;31019;43.780;25.948;2023-03-07T07:47:58;37.65;;;33.83;;
45274;SDS011;31019;43.780;25.948;2023-03-07T07:50:24;41.00;;;36.97;;
45274;SDS011;31019;43.780;25.948;2023-03-07T07:52:53;44.92;;;38.80;;
45274;SDS011;31019;43.780;25.948;2023-03-07T07:55:20;40.30;;;34.20;;
45274;SDS011;31019;43.780;25.948;2023-03-07T07:57:48;36.72;;;33.25;;
45274;SDS011;31019;43.780;25.948;2023-03-07T08:00:16;39.65;;;35.92;;
45274;SDS011;31019;43.780;25.948;2023-03-07T08:02:45;32.20;;;28.92;;
45274;SDS011;31019;43.780;25.948;2023-03-07T08:05:13;27.08;;;24.33;;
45274;SDS011;31019;43.780;25.948;2023-03-07T08:07:40;27.45;;;24.90;;
45274;SDS011;31019;43.780;25.948;2023-03-07T08:10:09;32.53;;;29.95;;
45274;SDS011;31019;43.780;25.948;2023-03-07T08:12:40;25.95;;;23.75;;
45274;SDS011;31019;43.780;25.948;2023-03-07T08:15:07;26.38;;;24.38;;
45274;SDS011;31019;43.780;25.948;2023-03-07T08:17:34;26.08;;;23.98;;
45274;SDS011;31019;43.780;25.948;2023-03-07T08:20:00;36.63;;;34.13;;
45274;SDS011;31019;43.780;25.948;2023-03-07T08:22:33;28.15;;;25.95;;
45274;SDS011;31019;43.780;25.948;2023-03-07T08:25:01;25.30;;;23.02;;
45274;SDS011;31019;43.780;25.948;2023-03-07T08:27:30;22.52;;;20.02;;
45274;SDS011;31019;43.780;25.948;2023-03-07T08:29:56;32.67;;;30.45;;
45274;SDS011;31019;43.780;25.948;2023-03-07T08:32:23;31.98;;;29.67;;
45274;SDS011;31019;43.780;25.948;2023-03-07T08:34:50;23.92;;;21.70;;
45274;SDS011;31019;43.780;25.948;2023-03-07T08:37:17;28.40;;;25.85;;
45274;SDS011;31019;43.780;25.948;2023-03-07T08:39:43;26.90;;;24.60;;
45274;SDS011;31019;43.780;25.948;2023-03-07T08:42:10;30.08;;;27.50;;
45274;SDS011;31019;43.780;25.948;2023-03-07T08:44:38;25.90;;;23.02;;
45274;SDS011;31019;43.780;25.948;2023-03-07T08:47:05;27.55;;;25.05;;
45274;SDS011;31019;43.780;25.948;2023-03-07T08:49:32;24.88;;;22.77;;
45274;SDS011;31019;43.780;25.948;2023-03-07T08:51:59;29.83;;;27.70;;
45274;SDS011;31019;43.780;25.948;2023-03-07T08:54:26;24.58;;;22.38;;
45274;SDS011;31019;43.780;25.948;2023-03-07T08:56:53;21.27;;;19.27;;
45274;SDS011;31019;43.780;25.948;2023-03-07T08:59:20;23.02;;;20.85;;
45274;SDS011;31019;43.780;25.948;2023-03-07T09:01:48;30.17;;;27.70;;
45274;SDS011;31019;43.780;25.948;2023-03-07T09:04:15;27.15;;;25.23;;
45274;SDS011;31019;43.780;25.948;2023-03-07T09:06:41;21.85;;;19.75;;
45274;SDS011;31019;43.780;25.948;2023-03-07T09:09:08;20.95;;;19.35;;
45274;SDS011;31019;43.780;25.948;2023-03-07T09:11:35;23.63;;;21.55;;
45274;SDS011;31019;43.780;25.948;2023-03-07T09:14:02;24.70;;;22.58;;
45274;SDS011;31019;43.780;25.948;2023-03-07T09:16:28;21.95;;;19.88;;
45274;SDS011;31019;43.780;25.948;2023-03-07T09:18:56;24.23;;;21.90;;
45274;SDS011;31019;43.780;25.948;2023-03-07T09:21:23;22.60;;;20.55;;
45274;SDS011;31019;43.780;25.948;2023-03-07T09:23:50;26.45;;;24.45;;
45274;SDS011;31019;43.780;25.948;2023-03-07T09:26:17;22.92;;;21.02;;
45274;SDS011;31019;43.780;25.948;2023-03-07T09:28:44;23.33;;;21.33;;
45274;SDS011;31019;43.780;25.948;2023-03-07T09:31:11;24.92;;;22.52;;
45274;SDS011;31019;43.780;25.948;2023-03-07T09:33:39;29.00;;;26.70;;
45274;SDS011;31019;43.780;25.948;2023-03-07T09:36:09;27.90;;;25.42;;
45274;SDS011;31019;43.780;25.948;2023-03-07T09:38:37;24.42;;;22.42;;
45274;SDS011;31019;43.780;25.948;2023-03-07T09:41:06;23.35;;;21.45;;
45274;SDS011;31019;43.780;25.948;2023-03-07T09:43:46;23.10;;;21.33;;
45274;SDS011;31019;43.780;25.948;2023-03-07T09:46:20;23.15;;;21.20;;
45274;SDS011;31019;43.780;25.948;2023-03-07T09:49:05;26.10;;;23.70;;
45274;SDS011;31019;43.780;25.948;2023-03-07T09:51:45;24.55;;;22.45;;
45274;SDS011;31019;43.780;25.948;2023-03-07T09:54:16;25.53;;;23.10;;
45274;SDS011;31019;43.780;25.948;2023-03-07T09:56:45;23.85;;;21.95;;
45274;SDS011;31019;43.780;25.948;2023-03-07T09:59:16;28.60;;;26.20;;
45274;SDS011;31019;43.780;25.948;2023-03-07T10:01:47;27.77;;;25.35;;
45274;SDS011;31019;43.780;25.948;2023-03-07T10:04:18;26.27;;;24.17;;
45274;SDS011;31019;43.780;25.948;2023-03-07T10:06:53;23.08;;;21.17;;
45274;SDS011;31019;43.780;25.948;2023-03-07T10:09:22;24.00;;;21.60;;
45274;SDS011;31019;43.780;25.948;2023-03-07T10:17:48;24.20;;;22.10;;
45274;SDS011;31019;43.780;25.948;2023-03-07T10:20:23;24.42;;;22.40;;
45274;SDS011;31019;43.780;25.948;2023-03-07T10:23:00;25.90;;;23.77;;
45274;SDS011;31019;43.780;25.948;2023-03-07T10:25:43;24.02;;;21.95;;
45274;SDS011;31019;43.780;25.948;2023-03-07T10:28:18;24.65;;;22.90;;
45274;SDS011;31019;43.780;25.948;2023-03-07T10:30:49;29.45;;;27.05;;
45274;SDS011;31019;43.780;25.948;2023-03-07T10:33:17;26.05;;;24.25;;
45274;SDS011;31019;43.780;25.948;2023-03-07T10:35:47;26.10;;;24.20;;
45274;SDS011;31019;43.780;25.948;2023-03-07T10:38:25;23.65;;;21.95;;
45274;SDS011;31019;43.780;25.948;2023-03-07T10:40:58;22.73;;;21.02;;
45274;SDS011;31019;43.780;25.948;2023-03-07T10:43:29;25.58;;;23.58;;
45274;SDS011;31019;43.780;25.948;2023-03-07T10:45:58;22.33;;;20.42;;
45274;SDS011;31019;43.780;25.948;2023-03-07T10:48:31;23.77;;;21.80;;
45274;SDS011;31019;43.780;25.948;2023-03-07T10:51:04;25.02;;;23.20;;
45274;SDS011;31019;43.780;25.948;2023-03-07T10:53:46;24.63;;;22.63;;
45274;SDS011;31019;43.780;25.948;2023-03-07T10:56:16;24.85;;;22.92;;
45274;SDS011;31019;43.780;25.948;2023-03-07T10:58:57;25.13;;;23.23;;
45274;SDS011;31019;43.780;25.948;2023-03-07T11:01:26;22.27;;;20.48;;
45274;SDS011;31019;43.780;25.948;2023-03-07T11:03:54;24.13;;;22.13;;
45274;SDS011;31019;43.780;25.948;2023-03-07T11:06:29;24.90;;;23.00;;
45274;SDS011;31019;43.780;25.948;2023-03-07T11:09:13;23.48;;;21.58;;
45274;SDS011;31019;43.780;25.948;2023-03-07T11:14:12;26.70;;;24.80;;
45274;SDS011;31019;43.780;25.948;2023-03-07T11:16:39;24.77;;;23.08;;
45274;SDS011;31019;43.780;25.948;2023-03-07T11:22:16;24.10;;;22.20;;
45274;SDS011;31019;43.780;25.948;2023-03-07T11:27:20;23.15;;;21.42;;
45274;SDS011;31019;43.780;25.948;2023-03-07T11:32:41;21.77;;;20.00;;
45274;SDS011;31019;43.780;25.948;2023-03-07T11:35:17;22.13;;;20.25;;
45274;SDS011;31019;43.780;25.948;2023-03-07T11:37:49;23.25;;;21.55;;
45274;SDS011;31019;43.780;25.948;2023-03-07T11:40:26;24.63;;;22.75;;
45274;SDS011;31019;43.780;25.948;2023-03-07T11:43:05;23.02;;;21.13;;
45274;SDS011;31019;43.780;25.948;2023-03-07T11:45:40;23.67;;;21.88;;
45274;SDS011;31019;43.780;25.948;2023-03-07T11:48:22;24.17;;;22.30;;
45274;SDS011;31019;43.780;25.948;2023-03-07T11:50:57;22.73;;;20.90;;
45274;SDS011;31019;43.780;25.948;2023-03-07T11:53:41;22.20;;;20.20;;
45274;SDS011;31019;43.780;25.948;2023-03-07T11:56:24;23.90;;;22.00;;
45274;SDS011;31019;43.780;25.948;2023-03-07T11:59:11;24.20;;;22.30;;
45274;SDS011;31019;43.780;25.948;2023-03-07T12:02:00;23.30;;;21.38;;
45274;SDS011;31019;43.780;25.948;2023-03-07T12:04:37;23.65;;;21.65;;
45274;SDS011;31019;43.780;25.948;2023-03-07T12:07:26;23.80;;;22.00;;
45274;SDS011;31019;43.780;25.948;2023-03-07T12:10:04;22.88;;;21.08;;
45274;SDS011;31019;43.780;25.948;2023-03-07T12:12:45;24.13;;;22.33;;
45274;SDS011;31019;43.780;25.948;2023-03-07T12:15:29;22.27;;;20.48;;
45274;SDS011;31019;43.780;25.948;2023-03-07T12:18:06;23.70;;;21.88;;
45274;SDS011;31019;43.780;25.948;2023-03-07T12:20:45;23.05;;;21.27;;
45274;SDS011;31019;43.780;25.948;2023-03-07T12:23:21;24.83;;;22.88;;
45274;SDS011;31019;43.780;25.948;2023-03-07T12:25:58;26.20;;;24.15;;
45274;SDS011;31019;43.780;25.948;2023-03-07T12:28:30;25.25;;;23.40;;
45274;SDS011;31019;43.780;25.948;2023-03-07T12:31:07;22.15;;;20.35;;
45274;SDS011;31019;43.780;25.948;2023-03-07T12:33:51;23.02;;;21.15;;
45274;SDS011;31019;43.780;25.948;2023-03-07T12:36:27;22.70;;;20.90;;
45274;SDS011;31019;43.780;25.948;2023-03-07T12:39:00;22.42;;;20.63;;
45274;SDS011;31019;43.780;25.948;2023-03-07T12:41:43;23.55;;;21.75;;
45274;SDS011;31019;43.780;25.948;2023-03-07T12:44:19;24.63;;;22.52;;
45274;SDS011;31019;43.780;25.948;2023-03-07T12:47:08;22.90;;;21.00;;
45274;SDS011;31019;43.780;25.948;2023-03-07T12:49:38;23.70;;;21.50;;
45274;SDS011;31019;43.780;25.948;2023-03-07T12:52:13;23.75;;;21.75;;
45274;SDS011;31019;43.780;25.948;2023-03-07T12:54:56;22.23;;;20.38;;
45274;SDS011;31019;43.780;25.948;2023-03-07T12:57:27;23.50;;;21.65;;
45274;SDS011;31019;43.780;25.948;2023-03-07T13:00:04;23.40;;;21.75;;
45274;SDS011;31019;43.780;25.948;2023-03-07T13:02:37;24.88;;;23.17;;
45274;SDS011;31019;43.780;25.948;2023-03-07T13:05:13;23.40;;;21.70;;
45274;SDS011;31019;43.780;25.948;2023-03-07T13:07:44;22.42;;;20.60;;
45274;SDS011;31019;43.780;25.948;2023-03-07T13:10:13;23.27;;;21.30;;
45274;SDS011;31019;43.780;25.948;2023-03-07T13:12:43;22.30;;;20.40;;
45274;SDS011;31019;43.780;25.948;2023-03-07T13:18:27;21.90;;;20.00;;
45274;SDS011;31019;43.780;25.948;2023-03-07T13:21:06;22.35;;;20.20;;
45274;SDS011;31019;43.780;25.948;2023-03-07T13:23:35;21.92;;;19.92;;
45274;SDS011;31019;43.780;25.948;2023-03-07T13:26:06;23.48;;;21.52;;
45274;SDS011;31019;43.780;25.948;2023-03-07T13:28:41;24.52;;;22.63;;
45274;SDS011;31019;43.780;25.948;2023-03-07T13:40:25;22.23;;;20.52;;
45274;SDS011;31019;43.780;25.948;2023-03-07T13:55:26;21.55;;;19.73;;
45274;SDS011;31019;43.780;25.948;2023-03-07T13:57:59;21.88;;;20.02;;
45274;SDS011;31019;43.780;25.948;2023-03-07T14:00:33;21.58;;;19.60;;
45274;SDS011;31019;43.780;25.948;2023-03-07T14:03:16;21.88;;;19.98;;
45274;SDS011;31019;43.780;25.948;2023-03-07T14:05:55;23.70;;;22.00;;
45274;SDS011;31019;43.780;25.948;2023-03-07T14:08:25;22.20;;;20.50;;
45274;SDS011;31019;43.780;25.948;2023-03-07T14:16:40;21.20;;;19.50;;
45274;SDS011;31019;43.780;25.948;2023-03-07T14:19:21;21.60;;;20.00;;
45274;SDS011;31019;43.780;25.948;2023-03-07T14:22:00;22.67;;;20.33;;
45274;SDS011;31019;43.780;25.948;2023-03-07T14:24:38;21.63;;;19.70;;
45274;SDS011;31019;43.780;25.948;2023-03-07T14:27:15;21.52;;;19.63;;
45274;SDS011;31019;43.780;25.948;2023-03-07T14:29:49;20.80;;;19.10;;
45274;SDS011;31019;43.780;25.948;2023-03-07T14:32:19;21.58;;;19.77;;
45274;SDS011;31019;43.780;25.948;2023-03-07T14:34:49;21.30;;;19.50;;
45274;SDS011;31019;43.780;25.948;2023-03-07T14:37:18;22.05;;;20.35;;
45274;SDS011;31019;43.780;25.948;2023-03-07T14:39:54;20.92;;;19.25;;
45274;SDS011;31019;43.780;25.948;2023-03-07T14:42:40;21.90;;;19.90;;
45274;SDS011;31019;43.780;25.948;2023-03-07T14:45:19;23.15;;;21.05;;
45274;SDS011;31019;43.780;25.948;2023-03-07T14:47:57;22.00;;;20.20;;
45274;SDS011;31019;43.780;25.948;2023-03-07T14:50:35;23.67;;;21.38;;
45274;SDS011;31019;43.780;25.948;2023-03-07T14:53:10;23.17;;;21.23;;
45274;SDS011;31019;43.780;25.948;2023-03-07T14:55:42;20.95;;;18.95;;
45274;SDS011;31019;43.780;25.948;2023-03-07T14:58:14;21.48;;;19.30;;
45274;SDS011;31019;43.780;25.948;2023-03-07T15:00:42;20.90;;;19.13;;
45274;SDS011;31019;43.780;25.948;2023-03-07T15:03:10;20.45;;;18.52;;
45274;SDS011;31019;43.780;25.948;2023-03-07T15:05:47;22.88;;;20.98;;
45274;SDS011;31019;43.780;25.948;2023-03-07T15:08:17;23.52;;;21.45;;
45274;SDS011;31019;43.780;25.948;2023-03-07T15:10:45;23.58;;;21.27;;
45274;SDS011;31019;43.780;25.948;2023-03-07T15:13:16;39.25;;;32.85;;